Home > Products > Valid Products > TAF

000
FTUS44 KMRX 020535
TAFCHA
TAF
KCHA 020535Z 0206/0306 VRB03KT P6SM SCT250
      TEMPO 0208/0212 4SM BR
     FM022100 23006KT P6SM VCTS BKN050CB OVC150
     FM030300 VRB03KT P6SM BKN080=



000
FTUS44 KMRX 020535
TAFCHA
TAF
KCHA 020535Z 0206/0306 VRB03KT P6SM SCT250
      TEMPO 0208/0212 4SM BR
     FM022100 23006KT P6SM VCTS BKN050CB OVC150
     FM030300 VRB03KT P6SM BKN080=



000
FTUS44 KMRX 020535
TAFTRI
TAF
KTRI 020535Z 0206/0306 VRB03KT P6SM BKN250
      TEMPO 0208/0212 4SM BR
     FM021600 25008KT P6SM VCTS BKN040CB OVC150
     FM030200 VRB03KT P6SM BKN080=



000
FTUS44 KMRX 020535
TAFTYS
TAF
KTYS 020535Z 0206/0306 23005KT P6SM SCT250
      TEMPO 0208/0212 4SM BR
     FM022000 24008KT P6SM VCTS BKN050CB OVC150
     FM030200 24005KT P6SM BKN080=



000
FTUS44 KMRX 020535
TAFTYS
TAF
KTYS 020535Z 0206/0306 23005KT P6SM SCT250
      TEMPO 0208/0212 4SM BR
     FM022000 24008KT P6SM VCTS BKN050CB OVC150
     FM030200 24005KT P6SM BKN080=



000
FTUS44 KMRX 020535
TAFTRI
TAF
KTRI 020535Z 0206/0306 VRB03KT P6SM BKN250
      TEMPO 0208/0212 4SM BR
     FM021600 25008KT P6SM VCTS BKN040CB OVC150
     FM030200 VRB03KT P6SM BKN080=



000
FTUS44 KMRX 012324
TAFCHA
TAF
KCHA 012324Z 0200/0224 24006KT P6SM SCT250
     FM020100 00000KT P6SM SCT150
     FM021400 23005KT P6SM SCT040 BKN150=



000
FTUS44 KMRX 012324
TAFTYS
TAF
KTYS 012324Z 0200/0224 22006KT P6SM SCT100 SCT250
     FM021100 22003KT 4SM BR SCT250
     FM021300 23007KT P6SM SCT250
     FM021500 23010KT P6SM BKN250
     FM021800 26011KT P6SM VCTS SCT050CB BKN250=



000
FTUS44 KMRX 012324
TAFTRI
TAF
KTRI 012324Z 0200/0224 25005KT P6SM SCT060 SCT100
     FM020600 00000KT 4SM BR SCT250
      TEMPO 0208/0212 2SM BR
     FM021200 00000KT 5SM BR SCT045 BKN250
     FM021500 23008KT P6SM VCSH BKN040 OVC100
     FM021800 24008KT P6SM VCTS BKN050CB OVC250=



000
FTUS44 KMRX 012324
TAFCHA
TAF
KCHA 012324Z 0200/0224 24006KT P6SM SCT250
     FM020100 00000KT P6SM SCT150
     FM021400 23005KT P6SM SCT040 BKN150=



000
FTUS44 KMRX 012324
TAFTRI
TAF
KTRI 012324Z 0200/0224 25005KT P6SM SCT060 SCT100
     FM020600 00000KT 4SM BR SCT250
      TEMPO 0208/0212 2SM BR
     FM021200 00000KT 5SM BR SCT045 BKN250
     FM021500 23008KT P6SM VCSH BKN040 OVC100
     FM021800 24008KT P6SM VCTS BKN050CB OVC250=



000
FTUS44 KMRX 012324
TAFTYS
TAF
KTYS 012324Z 0200/0224 22006KT P6SM SCT100 SCT250
     FM021100 22003KT 4SM BR SCT250
     FM021300 23007KT P6SM SCT250
     FM021500 23010KT P6SM BKN250
     FM021800 26011KT P6SM VCTS SCT050CB BKN250=



000
FTUS44 KMRX 011736
TAFTYS
TAF
KTYS 011736Z 0118/0218 23010KT P6SM SCT050 SCT150
     FM020000 21003KT P6SM SCT250
     FM021400 23010KT P6SM SCT035 BKN100=



000
FTUS44 KMRX 011736
TAFCHA
TAF
KCHA 011736Z 0118/0218 24006KT P6SM SCT050 SCT150 BKN200
     FM020000 00000KT P6SM SCT150
     FM021400 23005KT P6SM SCT040 BKN150=



000
FTUS44 KMRX 011736
TAFTRI
TAF
KTRI 011736Z 0118/0218 24010KT P6SM SCT045
     FM020000 00000KT P6SM SCT150 BKN250
     FM020800 00000KT 5SM BR BKN150
     FM021200 23004KT P6SM SCT045 BKN080
     FM021500 24008KT P6SM VCTS BKN040CB=



000
FTUS44 KMRX 011736
TAFTRI
TAF
KTRI 011736Z 0118/0218 24010KT P6SM SCT045
     FM020000 00000KT P6SM SCT150 BKN250
     FM020800 00000KT 5SM BR BKN150
     FM021200 23004KT P6SM SCT045 BKN080
     FM021500 24008KT P6SM VCTS BKN040CB=



000
FTUS44 KMRX 011736
TAFTYS
TAF
KTYS 011736Z 0118/0218 23010KT P6SM SCT050 SCT150
     FM020000 21003KT P6SM SCT250
     FM021400 23010KT P6SM SCT035 BKN100=



000
FTUS44 KMRX 011736
TAFCHA
TAF
KCHA 011736Z 0118/0218 24006KT P6SM SCT050 SCT150 BKN200
     FM020000 00000KT P6SM SCT150
     FM021400 23005KT P6SM SCT040 BKN150=



000
FTUS44 KMRX 011253 AAA
TAFTRI
TAF AMD
KTRI 011253Z 0113/0212 00000KT P6SM BKN100
     FM011500 24005KT P6SM SCT045
     FM020000 00000KT P6SM SCT250=



000
FTUS44 KMRX 011253 AAA
TAFTRI
TAF AMD
KTRI 011253Z 0113/0212 00000KT P6SM BKN100
     FM011500 24005KT P6SM SCT045
     FM020000 00000KT P6SM SCT250=



000
FTUS44 KMRX 011125
TAFTYS
TAF
KTYS 011125Z 0112/0212 24008KT P6SM SCT050 BKN150
     FM020000 VRB03KT P6SM SCT250=



000
FTUS44 KMRX 011125
TAFTRI
TAF
KTRI 011125Z 0112/0212 25008KT P6SM SCT050 BKN150
      TEMPO 0112/0114 4SM BR
     FM020000 00000KT P6SM SCT250=



000
FTUS44 KMRX 011125
TAFCHA
TAF
KCHA 011125Z 0112/0212 20006KT P6SM SCT050 BKN150
     FM020000 00000KT P6SM SCT250=



000
FTUS44 KMRX 011125
TAFTRI
TAF
KTRI 011125Z 0112/0212 25008KT P6SM SCT050 BKN150
      TEMPO 0112/0114 4SM BR
     FM020000 00000KT P6SM SCT250=



000
FTUS44 KMRX 011125
TAFTYS
TAF
KTYS 011125Z 0112/0212 24008KT P6SM SCT050 BKN150
     FM020000 VRB03KT P6SM SCT250=



000
FTUS44 KMRX 011125
TAFCHA
TAF
KCHA 011125Z 0112/0212 20006KT P6SM SCT050 BKN150
     FM020000 00000KT P6SM SCT250=



000
FTUS44 KMRX 010806 AAA
TAFTRI
TAF AMD
KTRI 010806Z 0108/0206 00000KT P6SM BKN080
      TEMPO 0108/0112 4SM BR
     FM011600 25008KT P6SM SCT040
     FM020000 00000KT P6SM SCT250=



000
FTUS44 KMRX 010806 AAA
TAFTRI
TAF AMD
KTRI 010806Z 0108/0206 00000KT P6SM BKN080
      TEMPO 0108/0112 4SM BR
     FM011600 25008KT P6SM SCT040
     FM020000 00000KT P6SM SCT250=



000
FTUS44 KMRX 010805 AAA
TAFCHA
TAF AMD
KCHA 010805Z 0108/0206 00000KT P6SM BKN080
      TEMPO 0108/0112 4SM BR
     FM011400 21006KT P6SM SCT050
     FM020000 00000KT P6SM SCT250=



000
FTUS44 KMRX 010805 AAA
TAFCHA
TAF AMD
KCHA 010805Z 0108/0206 00000KT P6SM BKN080
      TEMPO 0108/0112 4SM BR
     FM011400 21006KT P6SM SCT050
     FM020000 00000KT P6SM SCT250=



000
FTUS44 KMRX 010805 AAA
TAFTYS
TAF AMD
KTYS 010805Z 0108/0206 VRB03KT P6SM BKN080
      TEMPO 0108/0112 4SM BR
     FM011400 24008KT P6SM SCT040
     FM020000 VRB03KT P6SM SCT250=



000
FTUS44 KMRX 010805 AAA
TAFTYS
TAF AMD
KTYS 010805Z 0108/0206 VRB03KT P6SM BKN080
      TEMPO 0108/0112 4SM BR
     FM011400 24008KT P6SM SCT040
     FM020000 VRB03KT P6SM SCT250=



000
FTUS44 KMRX 010525
TAFTRI
TAF
KTRI 010525Z 0106/0206 00000KT 4SM BR BKN150
      TEMPO 0108/0112 1SM BR SCT002
     FM011400 25008KT P6SM SCT040
     FM020000 00000KT P6SM SCT250=



000
FTUS44 KMRX 010525
TAFCHA
TAF
KCHA 010525Z 0106/0206 00000KT P6SM BKN250
     FM010800 00000KT 4SM BR SCT250
      TEMPO 0108/0112 2SM BR SCT002
     FM011400 21006KT P6SM SCT050
     FM020000 00000KT P6SM SCT250=



000
FTUS44 KMRX 010525
TAFTYS
TAF
KTYS 010525Z 0106/0206 VRB03KT P6SM BKN250
     FM010800 VRB03KT 4SM BR SCT250
      TEMPO 0108/0112 2SM BR SCT002
     FM011400 24008KT P6SM SCT040
     FM020000 VRB03KT P6SM SCT250=



000
FTUS44 KMRX 010525
TAFTYS
TAF
KTYS 010525Z 0106/0206 VRB03KT P6SM BKN250
     FM010800 VRB03KT 4SM BR SCT250
      TEMPO 0108/0112 2SM BR SCT002
     FM011400 24008KT P6SM SCT040
     FM020000 VRB03KT P6SM SCT250=



000
FTUS44 KMRX 010525
TAFCHA
TAF
KCHA 010525Z 0106/0206 00000KT P6SM BKN250
     FM010800 00000KT 4SM BR SCT250
      TEMPO 0108/0112 2SM BR SCT002
     FM011400 21006KT P6SM SCT050
     FM020000 00000KT P6SM SCT250=



000
FTUS44 KMRX 010525
TAFTRI
TAF
KTRI 010525Z 0106/0206 00000KT 4SM BR BKN150
      TEMPO 0108/0112 1SM BR SCT002
     FM011400 25008KT P6SM SCT040
     FM020000 00000KT P6SM SCT250=



000
FTUS44 KMRX 312333
TAFCHA
TAF
KCHA 312333Z 0100/0124 18010KT P6SM VCTS SCT045CB BKN060 OVC130
     FM010200 22004KT P6SM FEW035 BKN250
     FM010800 00000KT 5SM BR SCT020 SCT150 BKN250
     FM011300 18004KT P6SM FEW035 BKN250
     FM011800 21006KT P6SM BKN250=



000
FTUS44 KMRX 312333
TAFTRI
TAF
KTRI 312333Z 0100/0124 28006KT P6SM SCT040 SCT090 BKN250
     FM010100 23003KT P6SM VCTS SCT040CB BKN250
     FM010500 VRB02KT 6SM BR SCT010 BKN250
     FM010800 00000KT 3SM BR SCT005 SCT100 BKN150
     FM011300 00000KT 4SM BR FEW008 SCT150 BKN250
     FM011400 25006KT P6SM SCT035 BKN250
     FM011800 24011KT P6SM BKN250=



000
FTUS44 KMRX 312333
TAFTYS
TAF
KTYS 312333Z 0100/0124 23007KT P6SM SCT045 BKN110
     FM010200 22006KT P6SM FEW035 BKN120
     FM010800 VRB03KT 5SM BR BKN150
     FM011400 23008KT P6SM SCT040 BKN250
     FM011800 24008KT P6SM BKN250=



000
FTUS44 KMRX 312333
TAFTRI
TAF
KTRI 312333Z 0100/0124 28006KT P6SM SCT040 SCT090 BKN250
     FM010100 23003KT P6SM VCTS SCT040CB BKN250
     FM010500 VRB02KT 6SM BR SCT010 BKN250
     FM010800 00000KT 3SM BR SCT005 SCT100 BKN150
     FM011300 00000KT 4SM BR FEW008 SCT150 BKN250
     FM011400 25006KT P6SM SCT035 BKN250
     FM011800 24011KT P6SM BKN250=



000
FTUS44 KMRX 312333
TAFTYS
TAF
KTYS 312333Z 0100/0124 23007KT P6SM SCT045 BKN110
     FM010200 22006KT P6SM FEW035 BKN120
     FM010800 VRB03KT 5SM BR BKN150
     FM011400 23008KT P6SM SCT040 BKN250
     FM011800 24008KT P6SM BKN250=



000
FTUS44 KMRX 312333
TAFCHA
TAF
KCHA 312333Z 0100/0124 18010KT P6SM VCTS SCT045CB BKN060 OVC130
     FM010200 22004KT P6SM FEW035 BKN250
     FM010800 00000KT 5SM BR SCT020 SCT150 BKN250
     FM011300 18004KT P6SM FEW035 BKN250
     FM011800 21006KT P6SM BKN250=



000
FTUS44 KMRX 312220 AAA
TAFTYS
TAF AMD
KTYS 312220Z 3122/0118 22005KT P6SM VCTS SCT045CB BKN090 OVC250
      TEMPO 3122/3123 VRB10G25KT 3SM TSRA BR BKN035CB
     FM010200 22006KT P6SM FEW035 BKN120
     FM010800 VRB03KT 5SM BR BKN150
     FM011300 23008KT P6SM SCT040 BKN250=



000
FTUS44 KMRX 312220 AAA
TAFTYS
TAF AMD
KTYS 312220Z 3122/0118 22005KT P6SM VCTS SCT045CB BKN090 OVC250
      TEMPO 3122/3123 VRB10G25KT 3SM TSRA BR BKN035CB
     FM010200 22006KT P6SM FEW035 BKN120
     FM010800 VRB03KT 5SM BR BKN150
     FM011300 23008KT P6SM SCT040 BKN250=



000
FTUS44 KMRX 312126 AAB
TAFCHA
TAF AMD
KCHA 312126Z 3121/0118 VRB06KT P6SM SCT050 BKN090
     FM312200 22010KT P6SM VCTS SCT045CB SCT100 BKN250
     FM010200 VRB03KT P6SM SCT050 BKN150
     FM010800 00000KT 4SM BR SCT020 SCT150 BKN200
     FM011300 VRB04KT P6SM FEW035 BKN250
     FM011700 21005KT P6SM SCT250=



000
FTUS44 KMRX 312126 AAB
TAFCHA
TAF AMD
KCHA 312126Z 3121/0118 VRB06KT P6SM SCT050 BKN090
     FM312200 22010KT P6SM VCTS SCT045CB SCT100 BKN250
     FM010200 VRB03KT P6SM SCT050 BKN150
     FM010800 00000KT 4SM BR SCT020 SCT150 BKN200
     FM011300 VRB04KT P6SM FEW035 BKN250
     FM011700 21005KT P6SM SCT250=



000
FTUS44 KMRX 311934 AAA
TAFCHA
TAF AMD
KCHA 311934Z 3120/0118 22008KT P6SM SCT025 BKN035
     FM312000 27012G22KT 3SM TSRA BR BKN030CB
     FM312210 23010KT P6SM VCTS SCT045CB SCT100 BKN250
     FM010200 VRB03KT P6SM SCT050 BKN150
     FM010800 00000KT 4SM BR SCT020 SCT150 BKN200
     FM011300 21006KT P6SM FEW035 BKN250=



000
FTUS44 KMRX 311738
TAFCHA
TAF
KCHA 311738Z 3118/0118 22008KT P6SM SCT025 BKN035
     FM312200 23010KT P6SM VCTS SCT045CB SCT100 BKN250
     FM010200 VRB03KT P6SM SCT050 BKN150
     FM010800 00000KT 4SM BR SCT020 SCT150 BKN200
     FM011300 21006KT P6SM FEW035 BKN250=



000
FTUS44 KMRX 311738
TAFTYS
TAF
KTYS 311738Z 3118/0118 23003KT P6SM BKN035
     FM312100 23010KT P6SM VCTS SCT040CB BKN100
     FM010200 22006KT P6SM FEW035 BKN120
     FM010800 VRB03KT 5SM BR BKN150
     FM011300 23008KT P6SM SCT040 BKN250=



000
FTUS44 KMRX 311738
TAFTRI
TAF
KTRI 311738Z 3118/0118 24005KT P6SM SCT050 BKN200
     FM010000 23003KT P6SM VCTS BKN040CB
     FM010500 VRB02KT 6SM BR SCT010 BKN100
     FM010800 00000KT 2SM BR SCT005 SCT100 BKN150
     FM011200 00000KT 4SM BR FEW008 SCT150 BKN250
     FM011400 23004KT P6SM SCT035 BKN250=



000
FTUS44 KMRX 311738
TAFTYS
TAF
KTYS 311738Z 3118/0118 23003KT P6SM BKN035
     FM312100 23010KT P6SM VCTS SCT040CB BKN100
     FM010200 22006KT P6SM FEW035 BKN120
     FM010800 VRB03KT 5SM BR BKN150
     FM011300 23008KT P6SM SCT040 BKN250=



000
FTUS44 KMRX 311738
TAFTRI
TAF
KTRI 311738Z 3118/0118 24005KT P6SM SCT050 BKN200
     FM010000 23003KT P6SM VCTS BKN040CB
     FM010500 VRB02KT 6SM BR SCT010 BKN100
     FM010800 00000KT 2SM BR SCT005 SCT100 BKN150
     FM011200 00000KT 4SM BR FEW008 SCT150 BKN250
     FM011400 23004KT P6SM SCT035 BKN250=



000
FTUS44 KMRX 311738
TAFCHA
TAF
KCHA 311738Z 3118/0118 22008KT P6SM SCT025 BKN035
     FM312200 23010KT P6SM VCTS SCT045CB SCT100 BKN250
     FM010200 VRB03KT P6SM SCT050 BKN150
     FM010800 00000KT 4SM BR SCT020 SCT150 BKN200
     FM011300 21006KT P6SM FEW035 BKN250=



000
FTUS44 KMRX 311401 AAA
TAFTYS
TAF AMD
KTYS 311401Z 3114/0112 23004KT P6SM BKN009
     FM311500 23006KT P6SM SCT020 BKN030
     FM311600 23010KT P6SM VCTS BKN040CB BKN150
     FM010000 23005KT P6SM BKN250=



000
FTUS44 KMRX 311401 AAA
TAFTYS
TAF AMD
KTYS 311401Z 3114/0112 23004KT P6SM BKN009
     FM311500 23006KT P6SM SCT020 BKN030
     FM311600 23010KT P6SM VCTS BKN040CB BKN150
     FM010000 23005KT P6SM BKN250=



000
FTUS44 KMRX 311359 AAA
TAFCHA
TAF AMD
KCHA 311359Z 3114/0112 18005KT P6SM SCT020 BKN035
     FM311500 20008KT P6SM VCTS BKN040CB BKN150
     FM010000 VRB03KT P6SM BKN250=



000
FTUS44 KMRX 311359 AAA
TAFCHA
TAF AMD
KCHA 311359Z 3114/0112 18005KT P6SM SCT020 BKN035
     FM311500 20008KT P6SM VCTS BKN040CB BKN150
     FM010000 VRB03KT P6SM BKN250=



000
FTUS44 KMRX 311125
TAFTYS
TAF
KTYS 311125Z 3112/0112 VRB03KT P6SM BKN150
      TEMPO 3112/3114 4SM BR SCT002
     FM311600 23010KT P6SM VCTS BKN040CB BKN150
     FM010000 23005KT P6SM BKN250=



000
FTUS44 KMRX 311125
TAFCHA
TAF
KCHA 311125Z 3112/0112 VRB03KT 2SM BR BKN150
      TEMPO 3112/3114 1/2SM FG VV002
     FM311500 20008KT P6SM VCTS BKN040CB BKN150
     FM010000 VRB03KT P6SM BKN250=



000
FTUS44 KMRX 311125
TAFCHA
TAF
KCHA 311125Z 3112/0112 VRB03KT 2SM BR BKN150
      TEMPO 3112/3114 1/2SM FG VV002
     FM311500 20008KT P6SM VCTS BKN040CB BKN150
     FM010000 VRB03KT P6SM BKN250=



000
FTUS44 KMRX 311125
TAFTRI
TAF
KTRI 311125Z 3112/0112 00000KT P6SM BKN080 BKN150
      TEMPO 3112/3114 4SM BR
     FM311800 23008KT P6SM VCTS BKN040CB BKN150
     FM010000 VRB03KT P6SM BKN250=



000
FTUS44 KMRX 311125
TAFTYS
TAF
KTYS 311125Z 3112/0112 VRB03KT P6SM BKN150
      TEMPO 3112/3114 4SM BR SCT002
     FM311600 23010KT P6SM VCTS BKN040CB BKN150
     FM010000 23005KT P6SM BKN250=



000
FTUS44 KMRX 311000 AAA
TAFCHA
TAF AMD
KCHA 311000Z 3110/0106 VRB03KT P6SM BKN150
      TEMPO 3110/3112 3SM BR BKN004
     FM311600 19008KT P6SM VCTS BKN040CB OVC150
     FM010000 VRB03KT P6SM BKN250=



000
FTUS44 KMRX 311000 AAA
TAFCHA
TAF AMD
KCHA 311000Z 3110/0106 VRB03KT P6SM BKN150
      TEMPO 3110/3112 3SM BR BKN004
     FM311600 19008KT P6SM VCTS BKN040CB OVC150
     FM010000 VRB03KT P6SM BKN250=



000
FTUS44 KMRX 310959 AAB
TAFTYS
TAF AMD
KTYS 310959Z 3110/0106 VRB03KT P6SM BKN150
      TEMPO 3110/3112 3SM BR SCT002
     FM311600 23010KT P6SM VCTS BKN040CB OVC150
     FM010000 22006KT P6SM BKN250=



000
FTUS44 KMRX 310959 AAB
TAFTYS
TAF AMD
KTYS 310959Z 3110/0106 VRB03KT P6SM BKN150
      TEMPO 3110/3112 3SM BR SCT002
     FM311600 23010KT P6SM VCTS BKN040CB OVC150
     FM010000 22006KT P6SM BKN250=



000
FTUS44 KMRX 310831 AAA
TAFTYS
TAF AMD
KTYS 310831Z 3109/0106 21005KT 4SM BR BKN150
      TEMPO 3109/3113 1SM BR SCT002
     FM311400 23012KT P6SM VCTS BKN040CB OVC150
     FM010000 22006KT P6SM BKN250=



000
FTUS44 KMRX 310831 AAA
TAFTYS
TAF AMD
KTYS 310831Z 3109/0106 21005KT 4SM BR BKN150
      TEMPO 3109/3113 1SM BR SCT002
     FM311400 23012KT P6SM VCTS BKN040CB OVC150
     FM010000 22006KT P6SM BKN250=



000
FTUS44 KMRX 310525
TAFTRI
TAF
KTRI 310525Z 3106/0106 00000KT P6SM BKN080 OVC150
      TEMPO 3106/3108 3SM TSRA BR BKN040CB OVC080
     FM311800 23008KT P6SM VCTS BKN040CB OVC150
     FM010000 VRB03KT P6SM BKN250=



000
FTUS44 KMRX 310525
TAFTYS
TAF
KTYS 310525Z 3106/0106 21005KT P6SM BKN080 OVC150
     FM311600 23012KT P6SM VCTS BKN040CB OVC150
     FM010000 22006KT P6SM BKN250=



000
FTUS44 KMRX 310525
TAFCHA
TAF
KCHA 310525Z 3106/0106 VRB03KT P6SM SCT080 OVC150
     FM311600 19008KT P6SM VCTS BKN040CB OVC150
     FM010000 VRB03KT P6SM BKN250=



000
FTUS44 KMRX 310525
TAFTRI
TAF
KTRI 310525Z 3106/0106 00000KT P6SM BKN080 OVC150
      TEMPO 3106/3108 3SM TSRA BR BKN040CB OVC080
     FM311800 23008KT P6SM VCTS BKN040CB OVC150
     FM010000 VRB03KT P6SM BKN250=



000
FTUS44 KMRX 310525
TAFTYS
TAF
KTYS 310525Z 3106/0106 21005KT P6SM BKN080 OVC150
     FM311600 23012KT P6SM VCTS BKN040CB OVC150
     FM010000 22006KT P6SM BKN250=



000
FTUS44 KMRX 310525
TAFCHA
TAF
KCHA 310525Z 3106/0106 VRB03KT P6SM SCT080 OVC150
     FM311600 19008KT P6SM VCTS BKN040CB OVC150
     FM010000 VRB03KT P6SM BKN250=



000
FTUS44 KMRX 310349 AAA
TAFTYS
TAF AMD
KTYS 310349Z 3104/3124 22010KT P6SM VCTS SCT040CB BKN060
      TEMPO 3104/3105 22015G25KT 2SM +TSRA BKN020CB
     FM310600 24003KT 6SM BR SCT060 BKN120
     FM310900 00000KT 5SM BR SCT150 BKN250
     FM311300 23004KT P6SM SCT035 BKN120
     FM311800 24012KT P6SM BKN100=



000
FTUS44 KMRX 310117 AAA
TAFCHA
TAF AMD
KCHA 310117Z 3101/3124 VRB03KT 3SM -TSRA BR BKN050CB OVC120
      TEMPO 3101/3102 VRB10G20KT 1SM +TSRA BR BKN020CB
     FM310200 00000KT P6SM VCTS SCT050CB BKN120
     FM310400 00000KT P6SM FEW045 BKN120
     FM311300 18004KT P6SM SCT035 BKN100=



000
FTUS44 KMRX 310117 AAA
TAFCHA
TAF AMD
KCHA 310117Z 3101/3124 VRB03KT 3SM -TSRA BR BKN050CB OVC120
      TEMPO 3101/3102 VRB10G20KT 1SM +TSRA BR BKN020CB
     FM310200 00000KT P6SM VCTS SCT050CB BKN120
     FM310400 00000KT P6SM FEW045 BKN120
     FM311300 18004KT P6SM SCT035 BKN100=



000
FTUS44 KMRX 302332
TAFTRI
TAF
KTRI 302332Z 3100/3124 21003KT P6SM SCT080 BKN110
     FM310300 21005KT P6SM OVC100
     FM310600 00000KT 6SM BR BKN120
     FM310900 00000KT 5SM BR OVC120
     FM311400 20004KT P6SM BKN250
     FM311800 24008KT P6SM BKN100=



000
FTUS44 KMRX 302332
TAFTYS
TAF
KTYS 302332Z 3100/3124 VRB05KT P6SM VCTS SCT050CB BKN110
      TEMPO 3101/3102 4SM -TSRA BR BKN040CB
     FM310600 24003KT 6SM BR SCT060 BKN120
     FM310900 00000KT 5SM BR SCT150 BKN250
     FM311300 23004KT P6SM SCT035 BKN120
     FM311800 24012KT P6SM BKN100=



000
FTUS44 KMRX 302332
TAFCHA
TAF
KCHA 302332Z 3100/3124 22008KT P6SM VCTS SCT060CB BKN120 OVC250
      TEMPO 3100/3101 VRB10G20KT 3SM TSRA BR BKN030CB
     FM310100 VRB03KT P6SM -SHRA BKN050
     FM310400 00000KT P6SM FEW045 BKN120
     FM311300 18004KT P6SM SCT035 BKN100=



000
FTUS44 KMRX 302332
TAFCHA
TAF
KCHA 302332Z 3100/3124 22008KT P6SM VCTS SCT060CB BKN120 OVC250
      TEMPO 3100/3101 VRB10G20KT 3SM TSRA BR BKN030CB
     FM310100 VRB03KT P6SM -SHRA BKN050
     FM310400 00000KT P6SM FEW045 BKN120
     FM311300 18004KT P6SM SCT035 BKN100=



000
FTUS44 KMRX 302332
TAFTYS
TAF
KTYS 302332Z 3100/3124 VRB05KT P6SM VCTS SCT050CB BKN110
      TEMPO 3101/3102 4SM -TSRA BR BKN040CB
     FM310600 24003KT 6SM BR SCT060 BKN120
     FM310900 00000KT 5SM BR SCT150 BKN250
     FM311300 23004KT P6SM SCT035 BKN120
     FM311800 24012KT P6SM BKN100=



000
FTUS44 KMRX 302332
TAFTRI
TAF
KTRI 302332Z 3100/3124 21003KT P6SM SCT080 BKN110
     FM310300 21005KT P6SM OVC100
     FM310600 00000KT 6SM BR BKN120
     FM310900 00000KT 5SM BR OVC120
     FM311400 20004KT P6SM BKN250
     FM311800 24008KT P6SM BKN100=



000
FTUS44 KMRX 302215 AAB
TAFCHA
TAF AMD
KCHA 302215Z 3022/3118 22008KT P6SM VCTS SCT040CB BKN060 OVC250
      TEMPO 3022/3024 VRB10G20KT 3SM TSRA BR BKN030CB
     FM310000 19004KT 5SM -TSRA BR BKN040CB
     FM310400 00000KT P6SM FEW045 BKN120
     FM311300 18004KT P6SM SCT035 BKN100=



000
FTUS44 KMRX 302215 AAB
TAFCHA
TAF AMD
KCHA 302215Z 3022/3118 22008KT P6SM VCTS SCT040CB BKN060 OVC250
      TEMPO 3022/3024 VRB10G20KT 3SM TSRA BR BKN030CB
     FM310000 19004KT 5SM -TSRA BR BKN040CB
     FM310400 00000KT P6SM FEW045 BKN120
     FM311300 18004KT P6SM SCT035 BKN100=



000
FTUS44 KMRX 302028 AAA
TAFCHA
TAF AMD
KCHA 302028Z 3020/3118 18010KT P6SM VCTS BKN040CB OVC070
      TEMPO 3020/3022 VRB10G20KT 2SM +TSRA BR BKN030CB
     FM310000 18004KT 5SM -TSRA BR BKN040CB
     FM310400 00000KT P6SM FEW045 BKN120
     FM311300 18004KT P6SM SCT035 BKN100=



000
FTUS44 KMRX 302028 AAA
TAFCHA
TAF AMD
KCHA 302028Z 3020/3118 18010KT P6SM VCTS BKN040CB OVC070
      TEMPO 3020/3022 VRB10G20KT 2SM +TSRA BR BKN030CB
     FM310000 18004KT 5SM -TSRA BR BKN040CB
     FM310400 00000KT P6SM FEW045 BKN120
     FM311300 18004KT P6SM SCT035 BKN100=



000
FTUS44 KMRX 302016 AAA
TAFTYS
TAF AMD
KTYS 302016Z 3020/3118 22006KT P6SM VCTS SCT035CB BKN060
      TEMPO 3020/3021 VRB05G15KT 3SM +TSRA BKN030CB
     FM302300 23007KT P6SM VCTS BKN050CB
     FM310500 VRB03KT P6SM SCT060 BKN150
     FM310900 00000KT 5SM BR SCT150 BKN250
     FM311300 23004KT P6SM SCT035 BKN120=



000
FTUS44 KMRX 302016 AAA
TAFTYS
TAF AMD
KTYS 302016Z 3020/3118 22006KT P6SM VCTS SCT035CB BKN060
      TEMPO 3020/3021 VRB05G15KT 3SM +TSRA BKN030CB
     FM302300 23007KT P6SM VCTS BKN050CB
     FM310500 VRB03KT P6SM SCT060 BKN150
     FM310900 00000KT 5SM BR SCT150 BKN250
     FM311300 23004KT P6SM SCT035 BKN120=



000
FTUS44 KMRX 301739
TAFCHA
TAF
KCHA 301739Z 3018/3118 18004KT P6SM SCT045 SCT100 BKN150
     FM302100 17006KT P6SM VCTS BKN050CB
     FM310000 18004KT 5SM -TSRA BR BKN040CB
     FM310400 00000KT P6SM FEW045 BKN120
     FM311300 18004KT P6SM SCT035 BKN100=



000
FTUS44 KMRX 301739
TAFTYS
TAF
KTYS 301739Z 3018/3118 22006KT P6SM SCT050 BKN120
     FM302300 23007KT P6SM VCTS BKN050CB
     FM310500 VRB03KT P6SM SCT060 BKN150
     FM310900 00000KT 5SM BR SCT150 BKN250
     FM311300 23004KT P6SM SCT035 BKN120=



000
FTUS44 KMRX 301739
TAFTRI
TAF
KTRI 301739Z 3018/3118 18004KT P6SM SCT050 BKN150
     FM302200 21003KT P6SM SCT060 SCT100 BKN200
     FM310600 00000KT P6SM OVC100
     FM311300 VRB03KT P6SM BKN120=



000
FTUS44 KMRX 301739
TAFCHA
TAF
KCHA 301739Z 3018/3118 18004KT P6SM SCT045 SCT100 BKN150
     FM302100 17006KT P6SM VCTS BKN050CB
     FM310000 18004KT 5SM -TSRA BR BKN040CB
     FM310400 00000KT P6SM FEW045 BKN120
     FM311300 18004KT P6SM SCT035 BKN100=



000
FTUS44 KMRX 301739
TAFTYS
TAF
KTYS 301739Z 3018/3118 22006KT P6SM SCT050 BKN120
     FM302300 23007KT P6SM VCTS BKN050CB
     FM310500 VRB03KT P6SM SCT060 BKN150
     FM310900 00000KT 5SM BR SCT150 BKN250
     FM311300 23004KT P6SM SCT035 BKN120=



000
FTUS44 KMRX 301739
TAFTRI
TAF
KTRI 301739Z 3018/3118 18004KT P6SM SCT050 BKN150
     FM302200 21003KT P6SM SCT060 SCT100 BKN200
     FM310600 00000KT P6SM OVC100
     FM311300 VRB03KT P6SM BKN120=



000
FTUS44 KMRX 301125
TAFCHA
TAF
KCHA 301125Z 3012/3112 VRB05KT P6SM SCT080 BKN250
     FM301800 18006KT P6SM VCTS BKN050CB OVC150
     FM310200 VRB03KT P6SM OVC100=



000
FTUS44 KMRX 301125
TAFTYS
TAF
KTYS 301125Z 3012/3112 VRB05KT P6SM SCT050 BKN250
     FM302000 22006KT P6SM VCTS BKN050CB OVC150
     FM310400 VRB03KT P6SM OVC100=



000
FTUS44 KMRX 301125
TAFTRI
TAF
KTRI 301125Z 3012/3112 VRB03KT P6SM SCT050 BKN250
     FM302200 23005KT P6SM VCTS BKN050CB OVC150
     FM310600 00000KT P6SM OVC100=



000
FTUS44 KMRX 301125
TAFTYS
TAF
KTYS 301125Z 3012/3112 VRB05KT P6SM SCT050 BKN250
     FM302000 22006KT P6SM VCTS BKN050CB OVC150
     FM310400 VRB03KT P6SM OVC100=



000
FTUS44 KMRX 301125
TAFTRI
TAF
KTRI 301125Z 3012/3112 VRB03KT P6SM SCT050 BKN250
     FM302200 23005KT P6SM VCTS BKN050CB OVC150
     FM310600 00000KT P6SM OVC100=



000
FTUS44 KMRX 301125
TAFCHA
TAF
KCHA 301125Z 3012/3112 VRB05KT P6SM SCT080 BKN250
     FM301800 18006KT P6SM VCTS BKN050CB OVC150
     FM310200 VRB03KT P6SM OVC100=



    US Dept of Commerce
    National Oceanic and Atmospheric Administration
    National Weather Service
    1325 East West Highway
    Silver Spring, MD 20910
    Page Author: NWS Internet Services Team
Disclaimer
Information Quality
Credits
Glossary
Privacy Policy
Freedom of Information Act (FOIA)
About Us
Career Opportunities